Time;durP1;ratioP1;P1;durP2;ratioP2;P2;SDS_P1;SDS_P2;PMS_P1;PMS_P2;Temp;Humidity;BMP_temperature;BMP_pressure;BME280_temperature;BME280_humidity;BME280_pressure;Samples;Min_cycle;Max_cycle;Signal;HPM_P1;HPM_P2
2024/01/07 00:00:30;;;;;;;252.90;238.43;;;6.60;99.90;;;;;;4989660;27;20033;-77
2024/01/07 00:02:56;;;;;;;360.67;338.90;;;6.60;99.90;;;;;;4988777;28;20038;-77
2024/01/07 00:05:22;;;;;;;368.80;346.60;;;6.60;99.90;;;;;;4989362;28;20037;-76
2024/01/07 00:07:50;;;;;;;330.87;311.47;;;6.70;99.90;;;;;;4990010;28;20031;-77
2024/01/07 00:10:16;;;;;;;222.03;209.53;;;6.70;99.90;;;;;;4989677;28;20069;-77
2024/01/07 00:12:42;;;;;;;236.13;223.10;;;6.60;99.90;;;;;;4990356;28;20093;-77
2024/01/07 00:15:09;;;;;;;262.63;247.87;;;6.50;99.90;;;;;;4989235;28;20034;-76
2024/01/07 00:17:35;;;;;;;298.40;281.10;;;6.50;99.90;;;;;;4989621;28;20038;-77
2024/01/07 00:20:01;;;;;;;177.97;167.93;;;6.50;99.90;;;;;;4990097;28;20061;-77
2024/01/07 00:22:27;;;;;;;171.87;162.30;;;6.40;99.90;;;;;;5053342;28;20036;-76
2024/01/07 00:24:53;;;;;;;177.03;167.07;;;6.40;99.90;;;;;;5021160;28;20034;-76
2024/01/07 00:27:19;;;;;;;173.97;164.47;;;6.40;99.90;;;;;;4989859;28;20042;-76
2024/01/07 00:29:45;;;;;;;214.70;203.10;;;6.30;99.90;;;;;;4989426;28;20431;-77
2024/01/07 00:32:11;;;;;;;169.57;160.20;;;6.30;99.90;;;;;;4989367;27;20046;-77
2024/01/07 00:34:37;;;;;;;164.57;155.53;;;6.40;99.90;;;;;;4989175;28;20511;-77
2024/01/07 00:37:04;;;;;;;177.13;167.30;;;6.30;99.90;;;;;;4989994;28;20046;-78
2024/01/07 00:39:30;;;;;;;216.57;204.80;;;6.30;99.90;;;;;;4988377;28;20073;-79
2024/01/07 00:41:56;;;;;;;246.50;232.63;;;6.30;99.90;;;;;;4988596;28;20042;-78
2024/01/07 00:44:22;;;;;;;173.57;162.93;;;6.30;99.90;;;;;;4989342;28;20392;-79
2024/01/07 00:46:48;;;;;;;173.47;163.43;;;6.40;99.90;;;;;;4988494;27;20041;-79
2024/01/07 00:49:14;;;;;;;267.60;252.73;;;6.40;99.90;;;;;;4989972;28;20483;-79
2024/01/07 00:51:40;;;;;;;146.73;138.40;;;6.40;99.90;;;;;;4988374;28;20030;-79
2024/01/07 00:54:06;;;;;;;134.70;127.00;;;6.30;99.90;;;;;;4988165;28;20789;-79
2024/01/07 00:56:32;;;;;;;148.47;140.27;;;6.20;99.90;;;;;;4988937;28;20034;-78
2024/01/07 00:58:58;;;;;;;161.43;152.60;;;6.30;99.90;;;;;;4989651;28;20030;-80
2024/01/07 01:01:24;;;;;;;156.70;147.87;;;6.30;99.90;;;;;;4987460;28;20045;-80
2024/01/07 01:03:50;;;;;;;167.73;158.27;;;6.20;99.90;;;;;;4989379;28;20038;-80
2024/01/07 01:06:16;;;;;;;150.57;142.27;;;6.20;99.90;;;;;;4988786;28;20034;-80
2024/01/07 01:08:42;;;;;;;152.20;143.63;;;6.20;99.90;;;;;;4987634;28;20504;-79
2024/01/07 01:11:12;;;;;;;158.40;149.27;;;6.10;99.90;;;;;;4988018;28;20045;-80
2024/01/07 01:13:38;;;;;;;147.90;139.57;;;6.20;99.90;;;;;;4988548;28;20069;-80
2024/01/07 01:16:04;;;;;;;144.87;136.50;;;6.20;99.90;;;;;;4990574;27;20035;-80
2024/01/07 01:18:30;;;;;;;139.17;131.03;;;6.20;99.90;;;;;;4992636;28;20054;-80
2024/01/07 01:20:56;;;;;;;145.87;137.47;;;6.20;99.90;;;;;;4993165;28;20031;-80
2024/01/07 01:23:22;;;;;;;178.57;168.23;;;6.20;99.90;;;;;;5094955;28;20039;-79
2024/01/07 01:25:49;;;;;;;158.10;148.97;;;6.00;99.90;;;;;;4990020;28;20045;-80
2024/01/07 01:28:15;;;;;;;152.90;144.27;;;6.10;99.90;;;;;;4991739;28;20036;-80
2024/01/07 01:30:41;;;;;;;165.57;155.93;;;6.10;99.90;;;;;;4990738;28;20034;-80
2024/01/07 01:33:07;;;;;;;220.47;207.33;;;6.00;99.90;;;;;;4991037;28;20074;-80
2024/01/07 01:35:33;;;;;;;171.67;161.60;;;5.90;99.90;;;;;;4990649;28;20077;-80
2024/01/07 01:37:59;;;;;;;163.20;153.60;;;5.90;99.90;;;;;;4991565;28;20038;-80
2024/01/07 01:40:25;;;;;;;164.27;154.23;;;5.90;99.90;;;;;;4992111;28;20065;-78
2024/01/07 01:42:51;;;;;;;200.17;187.97;;;5.90;99.90;;;;;;4991615;28;20042;-77
2024/01/07 01:45:18;;;;;;;168.33;158.37;;;5.90;99.90;;;;;;4991311;28;20041;-78
2024/01/07 01:47:45;;;;;;;163.93;154.37;;;5.80;99.90;;;;;;4991493;28;20061;-78
2024/01/07 01:50:11;;;;;;;178.20;167.80;;;5.80;99.90;;;;;;4990883;28;20030;-77
2024/01/07 01:52:37;;;;;;;175.90;165.70;;;5.80;99.90;;;;;;4991215;28;20034;-78
2024/01/07 01:55:03;;;;;;;160.60;151.47;;;5.80;99.90;;;;;;4990144;28;20043;-78
2024/01/07 01:57:33;;;;;;;177.77;167.40;;;5.80;99.90;;;;;;4990574;28;20042;-76
2024/01/07 02:00:03;;;;;;;286.23;269.97;;;6.00;99.90;;;;;;4992193;28;20465;-78
2024/01/07 02:02:34;;;;;;;201.15;189.55;;;6.00;99.90;;;;;;4991150;28;20035;-78
2024/01/07 02:05:02;;;;;;;211.32;198.98;;;5.90;99.90;;;;;;4990832;28;20046;-78
2024/01/07 02:07:28;;;;;;;163.80;154.00;;;6.00;99.90;;;;;;4991707;28;20046;-78
2024/01/07 02:09:54;;;;;;;204.73;192.73;;;5.90;99.90;;;;;;4990495;28;20038;-78
2024/01/07 02:12:20;;;;;;;226.67;213.97;;;5.80;99.90;;;;;;4991532;28;20404;-77
2024/01/07 02:14:46;;;;;;;281.97;265.67;;;5.90;99.90;;;;;;4991078;28;20050;-77
2024/01/07 02:17:12;;;;;;;209.23;197.10;;;5.90;99.90;;;;;;4991090;27;20026;-77
2024/01/07 02:19:38;;;;;;;199.07;187.63;;;5.90;99.90;;;;;;4991434;28;20038;-77
2024/01/07 02:22:05;;;;;;;255.37;240.67;;;5.90;99.90;;;;;;5040934;28;20051;-77
2024/01/07 02:24:31;;;;;;;197.33;186.33;;;5.90;99.90;;;;;;5051865;28;20519;-76
2024/01/07 02:26:57;;;;;;;173.87;163.93;;;6.00;99.90;;;;;;4989868;28;20022;-77
2024/01/07 02:29:23;;;;;;;152.43;143.40;;;5.90;99.90;;;;;;4991378;28;20038;-76
2024/01/07 02:31:49;;;;;;;158.43;149.27;;;5.80;99.90;;;;;;4991373;28;20045;-77
2024/01/07 02:34:15;;;;;;;159.40;150.53;;;5.80;99.90;;;;;;4990140;28;20050;-76
2024/01/07 02:36:41;;;;;;;155.63;146.60;;;5.70;99.90;;;;;;4991735;28;20044;-77
2024/01/07 02:39:08;;;;;;;154.67;146.13;;;5.60;99.90;;;;;;4991040;28;20065;-76
2024/01/07 02:41:34;;;;;;;164.30;154.87;;;5.50;99.90;;;;;;4990724;28;20050;-77
2024/01/07 02:44:00;;;;;;;154.57;145.70;;;5.50;99.90;;;;;;4990464;28;20034;-76
2024/01/07 02:46:26;;;;;;;152.87;144.13;;;5.40;99.90;;;;;;4990603;27;20397;-76
2024/01/07 02:48:52;;;;;;;147.93;139.83;;;5.50;99.90;;;;;;4990439;28;20053;-71
2024/01/07 02:51:18;;;;;;;150.57;142.07;;;5.50;99.90;;;;;;4989292;28;20468;-71
2024/01/07 02:53:44;;;;;;;159.67;150.57;;;5.50;99.90;;;;;;4990472;28;20047;-71
2024/01/07 02:56:11;;;;;;;149.07;140.67;;;5.50;99.90;;;;;;4990837;28;20027;-71
2024/01/07 02:58:37;;;;;;;166.77;157.30;;;5.40;99.90;;;;;;4990904;28;20037;-71
2024/01/07 03:01:03;;;;;;;172.23;162.37;;;5.40;99.90;;;;;;4989578;28;20035;-71
2024/01/07 03:03:29;;;;;;;183.37;172.90;;;5.40;99.90;;;;;;4986552;28;20034;-71
2024/01/07 03:05:56;;;;;;;145.70;137.70;;;5.20;99.90;;;;;;4985904;28;20038;-71
2024/01/07 03:08:22;;;;;;;154.63;146.37;;;5.20;99.90;;;;;;5024607;28;20024;-71
2024/01/07 03:10:48;;;;;;;166.43;157.00;;;5.30;99.90;;;;;;5044101;28;20033;-71
2024/01/07 03:13:14;;;;;;;211.07;199.50;;;5.20;99.90;;;;;;4988899;28;20041;-71
2024/01/07 03:15:40;;;;;;;143.97;136.20;;;5.20;99.90;;;;;;4989030;28;20046;-71
2024/01/07 03:18:06;;;;;;;120.03;113.23;;;5.20;99.90;;;;;;4987648;28;20038;-71
2024/01/07 03:20:32;;;;;;;118.47;111.70;;;5.20;99.90;;;;;;4989077;28;20923;-71
2024/01/07 03:23:00;;;;;;;137.10;129.37;;;5.30;99.90;;;;;;5031079;28;20041;-71
2024/01/07 03:25:26;;;;;;;148.10;140.03;;;5.30;99.90;;;;;;4989534;28;20030;-71
2024/01/07 03:27:52;;;;;;;131.33;123.90;;;5.30;99.90;;;;;;4989383;28;20053;-71
2024/01/07 03:30:18;;;;;;;133.17;125.87;;;5.40;99.90;;;;;;4993562;27;20022;-71
2024/01/07 03:32:44;;;;;;;116.97;110.73;;;5.30;99.90;;;;;;4987142;28;20045;-71
2024/01/07 03:35:11;;;;;;;154.20;145.57;;;5.30;99.90;;;;;;4989345;28;20045;-71
2024/01/07 03:37:37;;;;;;;150.60;142.23;;;5.40;99.90;;;;;;4989817;28;20496;-71
2024/01/07 03:40:03;;;;;;;158.10;149.47;;;5.30;99.90;;;;;;4991432;28;20519;-71
2024/01/07 03:42:29;;;;;;;150.50;142.17;;;5.30;99.90;;;;;;4988596;28;20034;-71
2024/01/07 03:44:55;;;;;;;144.00;136.20;;;5.40;99.90;;;;;;4989122;28;20035;-71
2024/01/07 03:47:21;;;;;;;131.13;124.07;;;5.40;99.90;;;;;;4989735;28;20484;-71
2024/01/07 03:49:47;;;;;;;124.33;117.43;;;5.50;99.90;;;;;;4990287;28;20042;-77
2024/01/07 03:52:14;;;;;;;146.47;138.70;;;5.50;99.90;;;;;;4989902;28;20476;-79
2024/01/07 03:54:40;;;;;;;180.77;171.23;;;5.50;99.90;;;;;;4989217;28;20053;-77
2024/01/07 03:57:06;;;;;;;181.20;171.63;;;5.50;99.90;;;;;;4995755;28;20043;-77
2024/01/07 03:59:32;;;;;;;149.03;140.97;;;5.50;99.90;;;;;;4990322;28;20041;-77
2024/01/07 04:01:58;;;;;;;229.70;217.33;;;5.60;99.90;;;;;;4989706;28;20472;-77
2024/01/07 04:04:24;;;;;;;257.50;242.37;;;5.60;99.90;;;;;;4989185;28;20053;-77
2024/01/07 04:06:50;;;;;;;253.13;239.03;;;5.60;99.90;;;;;;4990177;28;20053;-76
2024/01/07 04:09:16;;;;;;;141.77;133.97;;;5.60;99.90;;;;;;4989605;28;20050;-77
2024/01/07 04:11:43;;;;;;;154.77;146.03;;;5.60;99.90;;;;;;4989991;28;20484;-77
2024/01/07 04:14:09;;;;;;;136.17;128.63;;;5.50;99.90;;;;;;4988220;28;20076;-76
2024/01/07 04:16:35;;;;;;;279.20;264.00;;;5.50;99.90;;;;;;4989937;28;20404;-77
2024/01/07 04:19:01;;;;;;;177.37;167.97;;;5.50;99.90;;;;;;4988141;28;20374;-77
2024/01/07 04:21:27;;;;;;;161.93;152.80;;;5.50;99.90;;;;;;5008026;28;20028;-76
2024/01/07 04:23:53;;;;;;;138.23;131.03;;;5.50;99.90;;;;;;5020887;28;20503;-77
2024/01/07 04:26:19;;;;;;;141.47;134.13;;;5.60;99.90;;;;;;5004790;28;20042;-76
2024/01/07 04:28:45;;;;;;;158.37;149.90;;;5.60;99.90;;;;;;4989985;28;20065;-77
2024/01/07 04:31:12;;;;;;;136.83;129.57;;;5.60;99.90;;;;;;4988984;27;20041;-77
2024/01/07 04:33:38;;;;;;;157.73;149.37;;;5.50;99.90;;;;;;4989145;28;20037;-77
2024/01/07 04:36:05;;;;;;;139.87;132.13;;;5.50;99.90;;;;;;4989600;28;20034;-77
2024/01/07 04:38:31;;;;;;;199.73;189.20;;;5.50;99.90;;;;;;4989496;28;20029;-76
2024/01/07 04:40:57;;;;;;;132.50;125.27;;;5.50;99.90;;;;;;4989196;28;20055;-77
2024/01/07 04:43:23;;;;;;;143.97;136.07;;;5.50;99.90;;;;;;4989740;28;20030;-76
2024/01/07 04:45:49;;;;;;;136.53;129.13;;;5.70;99.90;;;;;;4989088;27;20030;-77
2024/01/07 04:48:15;;;;;;;156.53;147.83;;;5.80;99.90;;;;;;4989780;28;20068;-76
2024/01/07 04:50:44;;;;;;;168.90;159.70;;;5.80;99.90;;;;;;4991056;28;20026;-77
2024/01/07 04:53:10;;;;;;;144.70;136.70;;;5.80;99.90;;;;;;5072182;28;20029;-76
2024/01/07 04:55:36;;;;;;;179.20;169.60;;;5.90;99.90;;;;;;4977231;28;20034;-77
2024/01/07 04:58:04;;;;;;;195.67;184.83;;;6.00;99.90;;;;;;4993130;28;20042;-72
2024/01/07 05:00:30;;;;;;;186.10;176.00;;;6.00;99.90;;;;;;4990047;28;20038;-71
2024/01/07 05:02:56;;;;;;;178.63;169.20;;;5.80;99.90;;;;;;4991423;28;20054;-72
2024/01/07 05:05:22;;;;;;;175.03;165.70;;;5.80;99.90;;;;;;4992808;28;20031;-72
2024/01/07 05:07:49;;;;;;;149.10;140.87;;;5.70;99.90;;;;;;4992558;28;20034;-73
2024/01/07 05:10:15;;;;;;;148.30;140.13;;;5.60;99.90;;;;;;4991963;28;20026;-71
2024/01/07 05:12:41;;;;;;;138.63;131.07;;;5.60;99.90;;;;;;4991264;28;20022;-72
2024/01/07 05:15:08;;;;;;;146.37;138.37;;;5.80;99.90;;;;;;4992066;28;20038;-71
2024/01/07 05:17:34;;;;;;;143.73;136.23;;;5.80;99.90;;;;;;4992401;28;20019;-71
2024/01/07 05:20:00;;;;;;;171.90;162.57;;;5.80;99.90;;;;;;4992423;28;20030;-72
2024/01/07 05:22:26;;;;;;;150.97;142.50;;;5.90;99.90;;;;;;5055962;28;20024;-71
2024/01/07 05:24:52;;;;;;;160.30;151.43;;;5.70;99.90;;;;;;5024212;28;20034;-72
2024/01/07 05:27:18;;;;;;;166.87;157.77;;;5.60;99.90;;;;;;4992562;28;20491;-72
2024/01/07 05:29:46;;;;;;;201.80;190.83;;;5.60;99.90;;;;;;4992359;28;20034;-71
2024/01/07 05:32:12;;;;;;;168.93;159.87;;;5.60;99.90;;;;;;4990931;28;20488;-71
2024/01/07 05:34:38;;;;;;;163.47;154.53;;;5.60;99.90;;;;;;4991712;28;20050;-72
2024/01/07 05:37:04;;;;;;;216.47;204.57;;;5.60;99.90;;;;;;4992170;28;20027;-71
2024/01/07 05:39:30;;;;;;;141.70;133.83;;;5.60;99.90;;;;;;4991998;28;20054;-71
2024/01/07 05:41:56;;;;;;;142.70;135.07;;;5.60;99.90;;;;;;4991892;28;20034;-71
2024/01/07 05:44:22;;;;;;;195.17;184.27;;;5.60;99.90;;;;;;4992252;28;20049;-72
2024/01/07 05:46:48;;;;;;;298.23;281.03;;;5.50;99.90;;;;;;4991178;28;20045;-72
2024/01/07 05:49:14;;;;;;;273.20;257.57;;;5.40;99.90;;;;;;4991640;28;20035;-72
2024/01/07 05:51:41;;;;;;;227.27;214.53;;;5.30;99.90;;;;;;4991621;28;20041;-72
2024/01/07 05:54:07;;;;;;;134.67;127.43;;;5.30;99.90;;;;;;4991701;28;20045;-72
2024/01/07 05:56:39;;;;;;;139.67;131.93;;;5.40;99.90;;;;;;4991973;28;20054;-72
2024/01/07 05:59:05;;;;;;;139.47;131.90;;;5.50;99.90;;;;;;4991359;28;20030;-73
2024/01/07 06:01:31;;;;;;;118.90;112.23;;;5.40;99.90;;;;;;4991429;27;20404;-75
2024/01/07 06:03:57;;;;;;;101.87;96.00;;;5.40;99.90;;;;;;4991624;28;20082;-77
2024/01/07 06:06:23;;;;;;;107.87;101.43;;;5.40;99.90;;;;;;4991302;28;20456;-75
2024/01/07 06:08:49;;;;;;;110.53;104.37;;;5.50;99.90;;;;;;4986848;28;20046;-77
2024/01/07 06:11:20;;;;;;;99.97;94.37;;;5.50;99.90;;;;;;4985994;28;20700;-78
2024/01/07 06:13:46;;;;;;;113.65;107.10;;;5.50;99.90;;;;;;4990963;28;20388;-78
2024/01/07 06:16:12;;;;;;;169.57;160.17;;;5.60;99.90;;;;;;4990337;28;20054;-78
2024/01/07 06:18:39;;;;;;;128.03;120.83;;;5.60;99.90;;;;;;4991092;28;20488;-78
2024/01/07 06:21:05;;;;;;;142.67;134.77;;;5.60;99.90;;;;;;4991472;28;20499;-78
2024/01/07 06:23:34;;;;;;;136.60;129.23;;;5.70;99.90;;;;;;4991571;28;20045;-77
2024/01/07 06:26:03;;;;;;;138.30;130.50;;;5.60;99.90;;;;;;4989918;28;20402;-78
2024/01/07 06:28:29;;;;;;;163.97;155.00;;;5.50;99.90;;;;;;4991166;28;20038;-78
2024/01/07 06:30:55;;;;;;;121.80;115.10;;;5.40;99.90;;;;;;4990771;28;20041;-77
2024/01/07 06:33:22;;;;;;;133.33;126.13;;;5.40;99.90;;;;;;4990003;28;20030;-77
2024/01/07 06:35:48;;;;;;;99.80;94.23;;;5.40;99.90;;;;;;4992656;28;20045;-78
2024/01/07 06:38:14;;;;;;;130.27;123.10;;;5.50;99.90;;;;;;4991379;28;20030;-78
2024/01/07 06:40:41;;;;;;;105.67;99.70;;;5.50;99.90;;;;;;4991158;28;20042;-78
2024/01/07 06:43:07;;;;;;;108.83;102.87;;;5.40;99.90;;;;;;4990595;28;20042;-78
2024/01/07 06:45:33;;;;;;;129.37;122.20;;;5.50;99.90;;;;;;4989080;28;20030;-78
2024/01/07 06:48:00;;;;;;;136.57;129.07;;;5.50;99.90;;;;;;4991182;28;20054;-77
2024/01/07 06:50:26;;;;;;;125.40;118.47;;;5.50;99.90;;;;;;4991236;28;20042;-78
2024/01/07 06:52:53;;;;;;;127.70;120.90;;;5.60;99.90;;;;;;4990548;28;20046;-77
2024/01/07 06:55:19;;;;;;;159.67;150.87;;;5.60;99.90;;;;;;4991169;28;20034;-77
2024/01/07 06:57:45;;;;;;;134.33;127.07;;;5.50;99.90;;;;;;4991596;28;20042;-77
2024/01/07 07:00:11;;;;;;;134.70;127.33;;;5.50;99.90;;;;;;4990573;28;20046;-78
2024/01/07 07:02:37;;;;;;;141.60;133.77;;;5.50;99.90;;;;;;4990680;28;20062;-74
2024/01/07 07:05:04;;;;;;;131.70;124.47;;;5.50;99.90;;;;;;4989681;28;20046;-70
2024/01/07 07:07:30;;;;;;;146.70;138.43;;;5.50;99.90;;;;;;4990440;28;20042;-70
2024/01/07 07:09:56;;;;;;;166.20;157.30;;;5.50;99.90;;;;;;4990193;28;20034;-72
2024/01/07 07:12:22;;;;;;;141.80;134.33;;;5.50;99.90;;;;;;4998451;28;20026;-71
2024/01/07 07:14:48;;;;;;;264.30;249.60;;;5.50;99.90;;;;;;5010284;28;20038;-71
2024/01/07 07:17:15;;;;;;;327.37;308.73;;;5.50;99.90;;;;;;4992459;28;20045;-71
2024/01/07 07:19:41;;;;;;;213.57;201.80;;;5.40;99.90;;;;;;4990765;28;20037;-72
2024/01/07 07:22:07;;;;;;;278.67;262.83;;;5.40;99.90;;;;;;5001847;28;20031;-71
2024/01/07 07:24:33;;;;;;;290.90;274.30;;;5.40;99.90;;;;;;4990817;28;20035;-71
2024/01/07 07:26:59;;;;;;;154.80;146.33;;;5.50;99.90;;;;;;4990795;28;20034;-71
2024/01/07 07:29:25;;;;;;;157.10;148.50;;;5.60;99.90;;;;;;4990686;28;20038;-71
2024/01/07 07:31:51;;;;;;;144.70;137.00;;;5.60;99.90;;;;;;4989429;28;20057;-72
2024/01/07 07:34:17;;;;;;;220.27;208.40;;;5.60;99.90;;;;;;4990497;28;20027;-71
2024/01/07 07:36:44;;;;;;;291.07;274.67;;;5.70;99.90;;;;;;4990435;28;20053;-72
2024/01/07 07:39:10;;;;;;;222.87;209.80;;;5.70;99.90;;;;;;4990103;28;20076;-72
2024/01/07 07:41:37;;;;;;;279.33;263.23;;;5.50;99.90;;;;;;4989928;28;20467;-72
2024/01/07 07:44:03;;;;;;;310.07;291.57;;;5.50;99.90;;;;;;4990267;28;20034;-72
2024/01/07 07:46:29;;;;;;;253.33;237.63;;;5.40;99.90;;;;;;4989181;28;20046;-72
2024/01/07 07:48:55;;;;;;;316.37;298.10;;;5.30;99.90;;;;;;4989132;28;20042;-71
2024/01/07 07:51:21;;;;;;;322.50;304.13;;;5.30;99.90;;;;;;4990374;28;20034;-71
2024/01/07 07:53:47;;;;;;;273.17;257.27;;;5.30;99.90;;;;;;4988873;28;20497;-72
2024/01/07 07:56:13;;;;;;;299.90;282.30;;;5.30;99.90;;;;;;4989655;28;20042;-72
2024/01/07 07:58:39;;;;;;;210.27;198.43;;;5.40;99.90;;;;;;4990045;28;20036;-71
2024/01/07 08:01:06;;;;;;;289.80;273.40;;;5.30;99.90;;;;;;4989350;28;20031;-71
2024/01/07 08:03:32;;;;;;;277.10;261.13;;;5.30;99.90;;;;;;4990033;28;20389;-71
2024/01/07 08:05:58;;;;;;;233.63;219.53;;;5.40;99.90;;;;;;4986738;28;20042;-72
2024/01/07 08:08:24;;;;;;;299.57;282.17;;;5.40;99.90;;;;;;4989613;28;20026;-71
2024/01/07 08:10:50;;;;;;;228.73;216.13;;;5.50;99.90;;;;;;4989800;28;20038;-75
2024/01/07 08:13:17;;;;;;;286.67;270.23;;;5.50;99.90;;;;;;4989156;28;20026;-76
2024/01/07 08:15:43;;;;;;;320.77;302.17;;;5.50;99.90;;;;;;4989391;28;20046;-76
2024/01/07 08:18:09;;;;;;;239.03;225.63;;;5.50;99.90;;;;;;4989894;28;20050;-76
2024/01/07 08:20:35;;;;;;;194.77;183.57;;;5.50;99.90;;;;;;4990091;28;20045;-76
2024/01/07 08:23:01;;;;;;;266.13;251.07;;;5.50;99.90;;;;;;5079069;28;20035;-76
2024/01/07 08:25:27;;;;;;;313.40;294.57;;;5.50;99.90;;;;;;5093579;28;20028;-76
2024/01/07 08:27:53;;;;;;;312.27;293.77;;;5.50;99.90;;;;;;5047990;28;20045;-76
2024/01/07 08:30:19;;;;;;;402.73;378.37;;;5.60;99.90;;;;;;4990177;27;20049;-76
2024/01/07 08:32:45;;;;;;;431.13;404.60;;;5.50;99.90;;;;;;4993711;28;20052;-76
2024/01/07 08:35:12;;;;;;;111.70;105.53;;;5.60;99.90;;;;;;4993072;28;20038;-76
2024/01/07 08:37:38;;;;;;;127.83;120.23;;;5.50;99.90;;;;;;4992994;28;20050;-77
2024/01/07 08:40:04;;;;;;;126.87;119.33;;;5.50;99.90;;;;;;4992914;28;20504;-76
2024/01/07 08:42:30;;;;;;;125.60;118.60;;;5.50;99.90;;;;;;4996031;28;20042;-77
2024/01/07 08:44:56;;;;;;;143.87;135.63;;;5.40;99.90;;;;;;4992824;28;20049;-77
2024/01/07 08:47:22;;;;;;;305.27;287.77;;;5.50;99.90;;;;;;4992987;28;20033;-77
2024/01/07 08:49:49;;;;;;;185.80;175.27;;;5.50;99.90;;;;;;4992005;28;20038;-77
2024/01/07 08:52:15;;;;;;;98.43;92.90;;;5.50;99.90;;;;;;4994501;28;20041;-76
2024/01/07 08:54:41;;;;;;;145.50;137.17;;;5.50;99.90;;;;;;4992682;28;20038;-70
2024/01/07 08:57:08;;;;;;;235.27;221.93;;;5.50;99.90;;;;;;4992484;28;20141;-77
2024/01/07 08:59:35;;;;;;;251.33;237.13;;;5.70;99.90;;;;;;4992507;28;20045;-77
2024/01/07 09:02:01;;;;;;;252.63;238.83;;;5.70;99.90;;;;;;4991948;27;20068;-77
2024/01/07 09:04:27;;;;;;;213.27;201.37;;;5.70;99.90;;;;;;4992937;28;20456;-77
2024/01/07 09:06:53;;;;;;;212.50;200.57;;;5.70;99.90;;;;;;4993038;28;20049;-73
2024/01/07 09:09:19;;;;;;;108.57;102.40;;;5.70;99.90;;;;;;4992901;28;20460;-77
2024/01/07 09:11:45;;;;;;;208.63;196.57;;;5.70;99.90;;;;;;4992846;28;20046;-78
2024/01/07 09:14:11;;;;;;;292.10;275.77;;;5.70;99.90;;;;;;4992288;28;20054;-76
2024/01/07 09:16:37;;;;;;;126.20;119.10;;;5.70;99.90;;;;;;4992251;28;20385;-78
2024/01/07 09:19:03;;;;;;;109.00;103.13;;;5.70;99.90;;;;;;4990809;28;20049;-77
2024/01/07 09:21:30;;;;;;;96.70;91.07;;;5.80;99.90;;;;;;5015688;28;20420;-77
2024/01/07 09:23:56;;;;;;;91.67;86.13;;;5.90;99.90;;;;;;4990936;28;20034;-77
2024/01/07 09:26:22;;;;;;;175.33;166.43;;;5.90;99.90;;;;;;4990974;28;20523;-77
2024/01/07 09:28:48;;;;;;;78.97;74.67;;;6.00;99.90;;;;;;4991656;28;20031;-77
2024/01/07 09:31:15;;;;;;;82.70;78.23;;;6.00;99.90;;;;;;4991444;28;20518;-77
2024/01/07 09:33:41;;;;;;;53.08;50.08;;;6.10;99.90;;;;;;4991342;28;20026;-77
2024/01/07 09:36:08;;;;;;;102.73;97.30;;;6.10;99.90;;;;;;4990503;28;20039;-77
2024/01/07 09:38:34;;;;;;;235.43;222.87;;;6.20;99.90;;;;;;4992227;28;20063;-77
2024/01/07 09:41:00;;;;;;;69.43;65.63;;;6.30;99.90;;;;;;4991810;28;20046;-77
2024/01/07 09:43:26;;;;;;;77.90;73.50;;;6.30;99.90;;;;;;4990598;28;20492;-77
2024/01/07 09:45:52;;;;;;;108.47;102.30;;;6.30;99.90;;;;;;4973642;28;20067;-77
2024/01/07 09:48:18;;;;;;;95.13;89.83;;;6.30;99.90;;;;;;4990508;28;20038;-77
2024/01/07 09:50:45;;;;;;;120.70;114.40;;;6.30;99.90;;;;;;4991416;28;20037;-77
2024/01/07 09:53:15;;;;;;;89.50;84.83;;;6.30;99.90;;;;;;4990177;28;20469;-77
2024/01/07 09:55:47;;;;;;;92.67;87.60;;;6.30;99.90;;;;;;4990142;28;20047;-77
2024/01/07 09:58:14;;;;;;;257.77;243.50;;;6.30;99.90;;;;;;4991322;28;20441;-77
2024/01/07 10:00:40;;;;;;;455.83;429.07;;;6.30;99.90;;;;;;4989585;28;20046;-77
2024/01/07 10:03:06;;;;;;;416.75;392.52;;;6.30;99.90;;;;;;4991502;28;20485;-78
2024/01/07 10:05:32;;;;;;;504.40;474.63;;;6.30;99.90;;;;;;4973623;28;20050;-77
2024/01/07 10:07:58;;;;;;;86.33;81.10;;;6.40;99.90;;;;;;4991704;28;20491;-77
2024/01/07 10:10:24;;;;;;;242.47;229.90;;;6.20;99.90;;;;;;4990864;28;20038;-77
2024/01/07 10:12:52;;;;;;;72.43;68.20;;;6.20;99.90;;;;;;4991560;28;20037;-77
2024/01/07 10:15:19;;;;;;;292.67;277.17;;;6.20;99.90;;;;;;4990760;28;20050;-76
2024/01/07 10:17:45;;;;;;;256.03;242.27;;;6.20;99.90;;;;;;4991249;28;20046;-77
2024/01/07 10:20:12;;;;;;;1999.90;999.90;;;6.20;99.90;;;;;;4991368;28;20039;-78
2024/01/07 10:22:39;;;;;;;770.67;431.77;;;6.10;99.90;;;;;;5064490;28;20067;-81
2024/01/07 10:25:06;;;;;;;156.30;148.07;;;6.10;99.90;;;;;;5093241;28;20402;-80
2024/01/07 10:27:35;;;;;;;1999.90;999.90;;;6.20;99.90;;;;;;4993232;28;20034;-80
2024/01/07 10:30:02;;;;;;;288.53;273.40;;;6.30;99.90;;;;;;4991088;28;20038;-81
2024/01/07 10:32:29;;;;;;;288.00;272.83;;;6.30;99.90;;;;;;4989210;28;20703;-80
2024/01/07 10:35:01;;;;;;;217.70;206.13;;;6.30;99.90;;;;;;4990626;28;20041;-81
2024/01/07 10:37:27;;;;;;;170.47;161.47;;;6.50;99.90;;;;;;4990306;28;20038;-80
2024/01/07 10:39:55;;;;;;;140.15;132.48;;;6.50;99.90;;;;;;4985973;28;20070;-79
2024/01/07 10:42:21;;;;;;;167.17;158.23;;;6.60;99.90;;;;;;4998164;28;20392;-80
2024/01/07 10:44:48;;;;;;;169.57;160.63;;;6.70;99.90;;;;;;4989718;28;20037;-80
2024/01/07 10:47:14;;;;;;;142.75;135.27;;;6.70;99.90;;;;;;4987968;28;20045;-80
2024/01/07 10:49:40;;;;;;;113.32;107.55;;;6.70;99.90;;;;;;5074112;28;20027;-80
2024/01/07 10:52:07;;;;;;;656.90;398.63;;;6.70;99.90;;;;;;4972169;28;20480;-79
2024/01/07 10:54:35;;;;;;;145.80;138.30;;;6.80;99.90;;;;;;4990150;28;20057;-79
2024/01/07 10:57:12;;;;;;;99.70;94.30;;;6.90;99.90;;;;;;4990330;28;20034;-80
2024/01/07 10:59:38;;;;;;;1999.90;999.90;;;7.00;99.90;;;;;;4989503;28;20476;-79
2024/01/07 11:02:04;;;;;;;1999.90;999.90;;;7.10;99.90;;;;;;4989397;28;20034;-79
2024/01/07 11:04:54;;;;;;;1999.90;999.90;;;7.00;99.90;;;;;;4989365;28;20034;-80
2024/01/07 11:07:49;;;;;;;1999.90;999.90;;;7.10;99.90;;;;;;4989294;28;20422;-80
2024/01/07 11:10:20;;;;;;;1999.90;999.90;;;7.10;99.90;;;;;;4987399;28;20079;-80
2024/01/07 11:12:58;;;;;;;1999.90;999.90;;;7.10;99.90;;;;;;4989648;28;20031;-81
2024/01/07 11:15:57;;;;;;;1999.90;999.90;;;7.10;99.90;;;;;;4990216;27;20050;-80
2024/01/07 11:18:24;;;;;;;1999.90;999.90;;;7.10;99.90;;;;;;5030492;28;20044;-78
2024/01/07 11:20:50;;;;;;;1999.90;999.90;;;7.00;99.90;;;;;;5015247;28;20052;-77
2024/01/07 11:23:38;;;;;;;1999.90;999.90;;;7.10;99.90;;;;;;5029968;28;20036;-78
2024/01/07 11:26:04;;;;;;;1999.90;999.90;;;7.10;99.90;;;;;;5029951;28;20526;-77
2024/01/07 11:28:49;;;;;;;1999.90;999.90;;;7.20;99.90;;;;;;5013668;28;20421;-77
2024/01/07 11:31:17;;;;;;;1999.90;999.90;;;7.10;99.90;;;;;;5028997;28;20507;-77
2024/01/07 11:33:50;;;;;;;1999.90;999.90;;;7.10;99.90;;;;;;5030199;28;20033;-78
2024/01/07 11:36:16;;;;;;;1999.90;999.90;;;7.10;99.90;;;;;;5028669;28;20088;-77
2024/01/07 11:38:49;;;;;;;1999.90;999.90;;;7.20;99.90;;;;;;5047088;28;20048;-77
2024/01/07 11:41:16;;;;;;;1999.90;999.90;;;7.30;99.90;;;;;;5020721;28;20050;-77
2024/01/07 11:43:55;;;;;;;1999.90;999.90;;;7.30;99.90;;;;;;4993703;28;20034;-77
2024/01/07 11:46:22;;;;;;;1999.90;999.90;;;7.50;99.90;;;;;;5018582;28;20045;-77
2024/01/07 11:48:57;;;;;;;1999.90;999.90;;;7.60;99.90;;;;;;5013561;28;20400;-77
2024/01/07 11:51:30;;;;;;;1999.90;999.90;;;7.70;99.90;;;;;;5009161;28;20042;-77
2024/01/07 11:54:00;;;;;;;1999.90;999.90;;;7.70;99.90;;;;;;5006750;28;20042;-77
2024/01/07 11:56:26;;;;;;;1999.90;999.90;;;7.60;99.90;;;;;;4988545;28;20034;-77
2024/01/07 11:58:52;;;;;;;1999.90;999.90;;;7.60;99.90;;;;;;4988657;28;20390;-77
2024/01/07 12:01:18;;;;;;;1999.90;999.90;;;7.70;99.90;;;;;;4988327;28;20057;-77
2024/01/07 12:03:45;;;;;;;1999.90;999.90;;;7.80;99.90;;;;;;4988741;28;20366;-77
2024/01/07 12:06:14;;;;;;;1999.90;999.90;;;8.00;99.90;;;;;;4989684;28;20388;-77
2024/01/07 12:08:41;;;;;;;1999.90;999.90;;;8.00;99.90;;;;;;4988420;28;20485;-77
2024/01/07 12:11:08;;;;;;;1999.90;999.90;;;8.00;99.90;;;;;;4986365;28;20388;-76
2024/01/07 12:13:34;;;;;;;1999.90;999.90;;;7.80;99.90;;;;;;4988318;28;20061;-77
2024/01/07 12:16:00;;;;;;;1999.90;999.90;;;7.70;99.90;;;;;;4987694;28;20043;-76